Yablonovskiy Airstrip

RU-A044 · Adygeya Republic, 俄罗斯

罗盘
风向 的 风向 090°
风: 8 kt, 3 beaufort

添加一条跑道以查看侧风和逆风信息。

添置 跑道
0 ft 1.000 2.000 3.000 4.000 5.000
CAVOK
METAR URKK 231900Z 09004MPS CAVOK 06/00 Q1026 R05R/CLRD70 NOSIG RMK QFE766

METAR Yablonovskiy Airstrip - RU-A044

Yablonovskiy Airstrip是,俄罗斯中的小机场。 该机场位于纬度44,97050和经度38,99380。 这个机场没有ICAO代码,我们使用RU-A044作为参考。 机场在Rostov-na-donu FIR中。

该航空气象观测是针对Krasnodar Pashkovsky International Airport在2024年2月23日 22:00, 当地时间进行的。

机场观察

风向为090°,速度为8 kt。

天气为CAVOK。这意味着在5.000 ft或MSA(最低安全高度)以下(以较高者为准)以下没有云。这也意味着没有观测到积雨云或高耸的积云,可见度为10 km 或者更多或更高。此外,不会有雾,降雨或其他重要天气。

温度为6 °C,阵风为2 °C。 海平面上的气压为1026 hPa (QNH)。

白天

今天,太阳从07:12升起,在18:02降落。 这适用于Yablonovskiy Airstrip,世界夏令时可能有所不同。 当地时间与世界标准时间之间的时差为+3 小时。 当前,没有夏令时有效。

公司介绍

我们没有关于这个机场的公司信息。

体会

到Vliegles.nl去找飞行课程,跳伞和其他飞行体验。 浏览页面,了解Yablonovskiy Airstrip附近所有可用的活动。 你也可以使用搜索功能来寻找你所在地附近的特定飞行课程、跳伞或其他飞行体验。

警示语

跑道状况 RWY 05R: 干燥, 摩擦系数 0.7

温度 & 天气

温度 6 °C
露点 0 °C
相对湿度 66%
风寒 2 °C
Kp-index 0 (0-9)

跑道状况

05R 干燥, 摩擦系数 0.7

评论

QFE766未知降水 结束于 76, 结束于

白天

日出
07:12 (8:37)
中午
12:36
日落
18:01

小工具

你想在你的网站上有一个关于Yablonovskiy Airstrip的当前航空天气(METAR)的小部件吗?

显示HTML代码
?>